Time;durP1;ratioP1;P1;durP2;ratioP2;P2;SDS_P1;SDS_P2;PMS_P1;PMS_P2;Temp;Humidity;BMP_temperature;BMP_pressure;BME280_temperature;BME280_humidity;BME280_pressure;Samples;Min_cycle;Max_cycle;Signal;HPM_P1;HPM_P2
2021/10/23 00:02:05;;;;;;;;;;;9.30;99.90;;;;;;5097488;28;20344;-72
2021/10/23 00:04:31;;;;;;;;;;;9.30;99.90;;;;;;5097703;28;19924;-72
2021/10/23 00:07:00;;;;;;;;;;;9.30;99.90;;;;;;5097926;28;19934;-72
2021/10/23 00:09:26;;;;;;;;;;;9.30;99.90;;;;;;5097378;28;20386;-72
2021/10/23 00:11:53;;;;;;;;;;;9.30;99.90;;;;;;5097088;28;19934;-72
2021/10/23 00:14:20;;;;;;;;;;;9.30;99.90;;;;;;5095829;28;19934;-72
2021/10/23 00:16:47;;;;;;;;;;;9.30;99.90;;;;;;5096400;28;19973;-72
2021/10/23 00:19:14;;;;;;;;;;;9.30;99.90;;;;;;5097012;28;20359;-72
2021/10/23 00:21:40;;;;;;;;;;;9.30;99.90;;;;;;5095214;28;19930;-72
2021/10/23 00:24:09;;;;;;;;;;;9.30;99.90;;;;;;5077137;28;19935;-72
2021/10/23 00:26:36;;;;;;;;;;;9.30;99.90;;;;;;5076526;28;20360;-72
2021/10/23 00:29:02;;;;;;;;;;;9.30;99.90;;;;;;5076760;28;19935;-72
2021/10/23 00:31:29;;;;;;;;;;;9.30;99.90;;;;;;5077050;28;19968;-72
2021/10/23 00:33:56;;;;;;;;;;;9.30;99.90;;;;;;5076725;28;20006;-73
2021/10/23 00:36:23;;;;;;;;;;;9.30;99.90;;;;;;5076570;28;19925;-73
2021/10/23 00:38:50;;;;;;;;;;;9.30;99.90;;;;;;5076766;28;19924;-72
2021/10/23 00:41:18;;;;;;;;;;;9.30;99.90;;;;;;5076573;28;19928;-72
2021/10/23 00:43:46;;;;;;;;;;;9.30;99.90;;;;;;5076503;28;19924;-73
2021/10/23 00:46:12;;;;;;;;;;;9.30;99.90;;;;;;5077155;28;20337;-72
2021/10/23 00:48:39;;;;;;;;;;;9.30;99.90;;;;;;5077399;28;20260;-72
2021/10/23 00:51:06;;;;;;;;;;;9.30;99.90;;;;;;5080404;28;19930;-73
2021/10/23 00:53:33;;;;;;;;;;;9.40;99.90;;;;;;5096359;28;19935;-72
2021/10/23 00:56:02;;;;;;;;;;;9.40;99.90;;;;;;5095659;28;20208;-72
2021/10/23 00:58:30;;;;;;;;;;;9.40;99.90;;;;;;5096754;28;19928;-72
2021/10/23 01:00:57;;;;;;;;;;;9.40;99.90;;;;;;5096445;28;19935;-72
2021/10/23 01:03:24;;;;;;;;;;;9.40;99.90;;;;;;5096482;28;19924;-72
2021/10/23 01:05:50;;;;;;;;;;;9.40;99.90;;;;;;5096149;28;19925;-72
2021/10/23 01:08:17;;;;;;;;;;;9.40;99.90;;;;;;5096147;28;19928;-72
2021/10/23 01:10:44;;;;;;;;;;;9.30;99.90;;;;;;5096531;28;20264;-72
2021/10/23 01:13:11;;;;;;;;;;;9.30;99.90;;;;;;5095804;28;20275;-72
2021/10/23 01:15:39;;;;;;;;;;;9.30;99.90;;;;;;5096056;28;20350;-72
2021/10/23 01:18:07;;;;;;;;;;;9.40;99.90;;;;;;5096210;28;19934;-72
2021/10/23 01:20:35;;;;;;;;;;;9.30;99.90;;;;;;5095292;28;19932;-72
2021/10/23 01:23:02;;;;;;;;;;;9.30;99.90;;;;;;5096207;28;19924;-72
2021/10/23 01:25:29;;;;;;;;;;;9.30;99.90;;;;;;5095903;28;19928;-72
2021/10/23 01:27:57;;;;;;;;;;;9.30;99.90;;;;;;5095875;28;19924;-72
2021/10/23 01:30:24;;;;;;;;;;;9.30;99.90;;;;;;5095809;28;19962;-72
2021/10/23 01:32:51;;;;;;;;;;;9.30;99.90;;;;;;5096013;28;19924;-73
2021/10/23 01:35:17;;;;;;;;;;;9.30;99.90;;;;;;5095811;28;19924;-73
2021/10/23 01:37:46;;;;;;;;;;;9.30;99.90;;;;;;5095041;28;19924;-72
2021/10/23 01:40:14;;;;;;;;;;;9.30;99.90;;;;;;5095569;28;19928;-72
2021/10/23 01:42:40;;;;;;;;;;;9.30;99.90;;;;;;5095744;28;20464;-73
2021/10/23 01:45:08;;;;;;;;;;;9.30;99.90;;;;;;5095696;28;19935;-72
2021/10/23 01:47:34;;;;;;;;;;;9.30;99.90;;;;;;5095551;28;19924;-72
2021/10/23 01:50:01;;;;;;;;;;;9.30;99.90;;;;;;5095582;28;19935;-72
2021/10/23 01:52:28;;;;;;;;;;;9.30;99.90;;;;;;5095662;28;19924;-72
2021/10/23 01:54:56;;;;;;;;;;;9.30;99.90;;;;;;5095504;28;20340;-72
2021/10/23 01:57:23;;;;;;;;;;;9.30;99.90;;;;;;5095661;28;19936;-72
2021/10/23 01:59:50;;;;;;;;;;;9.30;99.90;;;;;;5095512;28;19934;-72
2021/10/23 02:02:17;;;;;;;;;;;9.30;99.90;;;;;;5095511;28;19939;-72
2021/10/23 02:04:44;;;;;;;;;;;9.30;99.90;;;;;;5095299;28;20382;-72
2021/10/23 02:07:11;;;;;;;;;;;9.30;99.90;;;;;;5095271;28;19931;-72
2021/10/23 02:09:38;;;;;;;;;;;9.30;99.90;;;;;;5095237;28;19934;-72
2021/10/23 02:12:06;;;;;;;;;;;9.30;99.90;;;;;;5095542;28;19930;-72
2021/10/23 02:14:33;;;;;;;;;;;9.30;99.90;;;;;;5095296;28;20015;-72
2021/10/23 02:17:00;;;;;;;;;;;9.30;99.90;;;;;;5095289;28;19924;-72
2021/10/23 02:19:27;;;;;;;;;;;9.30;99.90;;;;;;5095095;28;19928;-72
2021/10/23 02:21:53;;;;;;;;;;;9.30;99.90;;;;;;5095147;28;19924;-72
2021/10/23 02:24:20;;;;;;;;;;;9.30;99.90;;;;;;5095566;28;19928;-72
2021/10/23 02:26:47;;;;;;;;;;;9.30;99.90;;;;;;5095152;28;19928;-72
2021/10/23 02:29:16;;;;;;;;;;;9.40;99.90;;;;;;5094984;28;19924;-73
2021/10/23 02:31:43;;;;;;;;;;;9.40;99.90;;;;;;5095251;28;20011;-72
2021/10/23 02:34:10;;;;;;;;;;;9.40;99.90;;;;;;5094970;28;20019;-72
2021/10/23 02:36:37;;;;;;;;;;;9.40;99.90;;;;;;5095497;28;20075;-72
2021/10/23 02:39:05;;;;;;;;;;;9.40;99.90;;;;;;5095221;28;19950;-72
2021/10/23 02:41:32;;;;;;;;;;;9.40;99.90;;;;;;5095107;28;20341;-72
2021/10/23 02:43:59;;;;;;;;;;;9.40;99.90;;;;;;5094940;28;19934;-72
2021/10/23 02:46:27;;;;;;;;;;;9.40;99.90;;;;;;5094864;28;19924;-72
2021/10/23 02:48:54;;;;;;;;;;;9.40;99.90;;;;;;5096519;28;19924;-72
2021/10/23 02:51:21;;;;;;;;;;;9.40;99.90;;;;;;5098892;28;20321;-72
2021/10/23 02:53:48;;;;;;;;;;;9.40;99.90;;;;;;5098632;28;19924;-72
2021/10/23 02:56:15;;;;;;;;;;;9.50;99.90;;;;;;5099115;28;19935;-72
2021/10/23 02:58:42;;;;;;;;;;;9.50;99.90;;;;;;5098815;28;19924;-72
2021/10/23 03:01:09;;;;;;;;;;;9.40;99.90;;;;;;5098578;28;20344;-72
2021/10/23 03:03:37;;;;;;;;;;;9.50;99.90;;;;;;5098647;28;19924;-72
2021/10/23 03:06:04;;;;;;;;;;;9.50;99.90;;;;;;5099077;28;19924;-72
2021/10/23 03:08:30;;;;;;;;;;;9.40;99.90;;;;;;5098547;28;20333;-72
2021/10/23 03:10:57;;;;;;;;;;;9.40;99.90;;;;;;5098508;28;19935;-72
2021/10/23 03:13:24;;;;;;;;;;;9.50;99.90;;;;;;5098423;28;19934;-72
2021/10/23 03:15:53;;;;;;;;;;;9.50;99.90;;;;;;5098428;28;19924;-72
2021/10/23 03:18:20;;;;;;;;;;;9.40;99.90;;;;;;5098406;28;19924;-72
2021/10/23 03:20:48;;;;;;;;;;;9.50;99.90;;;;;;5098253;28;19924;-72
2021/10/23 03:23:16;;;;;;;;;;;9.50;99.90;;;;;;5098487;28;19924;-72
2021/10/23 03:25:43;;;;;;;;;;;9.50;99.90;;;;;;5098416;28;20015;-72
2021/10/23 03:28:10;;;;;;;;;;;9.50;99.90;;;;;;5098383;28;20310;-72
2021/10/23 03:30:37;;;;;;;;;;;9.50;99.90;;;;;;5098152;28;19923;-72
2021/10/23 03:33:03;;;;;;;;;;;9.50;99.90;;;;;;5098220;28;19924;-72
2021/10/23 03:35:30;;;;;;;;;;;9.50;99.90;;;;;;5097953;28;19924;-72
2021/10/23 03:37:58;;;;;;;;;;;9.50;99.90;;;;;;5098280;28;19924;-72
2021/10/23 03:40:25;;;;;;;;;;;9.50;99.90;;;;;;5097989;28;20348;-72
2021/10/23 03:42:52;;;;;;;;;;;9.50;99.90;;;;;;5097989;28;19930;-72
2021/10/23 03:45:19;;;;;;;;;;;9.50;99.90;;;;;;5097806;28;19928;-72
2021/10/23 03:47:46;;;;;;;;;;;9.50;99.90;;;;;;5097803;28;19924;-72
2021/10/23 03:50:13;;;;;;;;;;;9.50;99.90;;;;;;5098046;28;19932;-72
2021/10/23 03:52:39;;;;;;;;;;;9.40;99.90;;;;;;5097726;28;19924;-72
2021/10/23 03:55:09;;;;;;;;;;;9.50;99.90;;;;;;5097824;28;20214;-72
2021/10/23 03:57:35;;;;;;;;;;;9.50;99.90;;;;;;5097675;28;19924;-72
2021/10/23 04:00:04;;;;;;;;;;;9.40;99.90;;;;;;5096719;28;19924;-72
2021/10/23 04:02:31;;;;;;;;;;;9.40;99.90;;;;;;5097595;28;19946;-72
2021/10/23 04:04:58;;;;;;;;;;;9.40;99.90;;;;;;5097573;28;20383;-72
2021/10/23 04:07:24;;;;;;;;;;;9.40;99.90;;;;;;5097490;28;19924;-72
2021/10/23 04:09:51;;;;;;;;;;;9.40;99.90;;;;;;5097656;28;19924;-72
2021/10/23 04:12:19;;;;;;;;;;;9.40;99.90;;;;;;5097444;28;19928;-72
2021/10/23 04:14:46;;;;;;;;;;;9.50;99.90;;;;;;5097855;28;19924;-73
2021/10/23 04:17:13;;;;;;;;;;;9.40;99.90;;;;;;5097148;28;19927;-73
2021/10/23 04:19:40;;;;;;;;;;;9.40;99.90;;;;;;5097489;28;19923;-73
2021/10/23 04:22:07;;;;;;;;;;;9.50;99.90;;;;;;5097307;28;20340;-72
2021/10/23 04:24:34;;;;;;;;;;;9.50;99.90;;;;;;5097182;28;19924;-73
2021/10/23 04:27:00;;;;;;;;;;;9.50;99.90;;;;;;5097082;28;19930;-73
2021/10/23 04:29:29;;;;;;;;;;;9.50;99.90;;;;;;5097069;28;19924;-73
2021/10/23 04:31:55;;;;;;;;;;;9.50;99.90;;;;;;5096976;28;19924;-73
2021/10/23 04:34:22;;;;;;;;;;;9.50;99.90;;;;;;5097133;28;19934;-73
2021/10/23 04:36:49;;;;;;;;;;;9.50;99.90;;;;;;5097153;28;19938;-73
2021/10/23 04:39:16;;;;;;;;;;;9.50;99.90;;;;;;5096841;28;20375;-73
2021/10/23 04:41:43;;;;;;;;;;;9.40;99.90;;;;;;5096899;28;19924;-72
2021/10/23 04:44:10;;;;;;;;;;;9.40;99.90;;;;;;5096745;28;19946;-72
2021/10/23 04:46:38;;;;;;;;;;;9.40;99.90;;;;;;5096678;28;20364;-72
2021/10/23 04:49:05;;;;;;;;;;;9.40;99.90;;;;;;5096890;28;19924;-72
2021/10/23 04:51:32;;;;;;;;;;;9.40;99.90;;;;;;5096752;28;19924;-73
2021/10/23 04:53:58;;;;;;;;;;;9.40;99.90;;;;;;5096319;28;20368;-73
2021/10/23 04:56:25;;;;;;;;;;;9.40;99.90;;;;;;5096366;28;19923;-72
2021/10/23 04:58:52;;;;;;;;;;;9.40;99.90;;;;;;5096742;28;19935;-72
2021/10/23 05:01:20;;;;;;;;;;;9.40;99.90;;;;;;5096673;28;19931;-72
2021/10/23 05:03:48;;;;;;;;;;;9.40;99.90;;;;;;5096511;28;20030;-72
2021/10/23 05:06:15;;;;;;;;;;;9.40;99.90;;;;;;5096194;28;19935;-72
2021/10/23 05:08:42;;;;;;;;;;;9.30;99.90;;;;;;5096223;28;20352;-72
2021/10/23 05:11:09;;;;;;;;;;;9.30;99.90;;;;;;5096151;28;19936;-72
2021/10/23 05:13:36;;;;;;;;;;;9.30;99.90;;;;;;5096518;28;19924;-72
2021/10/23 05:16:03;;;;;;;;;;;9.30;99.90;;;;;;5096235;28;19934;-72
2021/10/23 05:18:30;;;;;;;;;;;9.30;99.90;;;;;;5096009;28;19924;-72
2021/10/23 05:20:58;;;;;;;;;;;9.30;99.90;;;;;;5096117;28;19924;-72
2021/10/23 05:23:25;;;;;;;;;;;9.30;99.90;;;;;;5096325;28;20245;-72
2021/10/23 05:25:51;;;;;;;;;;;9.30;99.90;;;;;;5096008;28;19934;-72
2021/10/23 05:28:18;;;;;;;;;;;9.30;99.90;;;;;;5095851;28;19928;-72
2021/10/23 05:30:45;;;;;;;;;;;9.30;99.90;;;;;;5096188;28;19924;-72
2021/10/23 05:33:12;;;;;;;;;;;9.20;99.90;;;;;;5095927;28;20340;-72
2021/10/23 05:35:39;;;;;;;;;;;9.20;99.90;;;;;;5095818;28;19927;-72
2021/10/23 05:38:07;;;;;;;;;;;9.30;99.90;;;;;;5095734;28;19924;-72
2021/10/23 05:40:34;;;;;;;;;;;9.30;99.90;;;;;;5095667;28;20348;-72
2021/10/23 05:43:00;;;;;;;;;;;9.30;99.90;;;;;;5095660;28;19924;-72
2021/10/23 05:45:27;;;;;;;;;;;9.30;99.90;;;;;;5095866;28;19924;-72
2021/10/23 05:47:54;;;;;;;;;;;9.30;99.90;;;;;;5095822;28;19924;-72
2021/10/23 05:50:21;;;;;;;;;;;9.30;99.90;;;;;;5095715;28;19931;-72
2021/10/23 05:52:48;;;;;;;;;;;9.30;99.90;;;;;;5095376;28;19924;-72
2021/10/23 05:55:16;;;;;;;;;;;9.30;99.90;;;;;;5095499;28;19924;-72
2021/10/23 05:57:43;;;;;;;;;;;9.30;99.90;;;;;;5095356;28;19924;-72
2021/10/23 06:00:11;;;;;;;;;;;9.30;99.90;;;;;;5095403;28;20336;-72
2021/10/23 06:02:39;;;;;;;;;;;9.30;99.90;;;;;;5095536;28;20014;-72
2021/10/23 06:05:06;;;;;;;;;;;9.30;99.90;;;;;;5095522;28;19924;-72
2021/10/23 06:07:33;;;;;;;;;;;9.30;99.90;;;;;;5095709;28;19934;-72
2021/10/23 06:10:00;;;;;;;;;;;9.30;99.90;;;;;;5095240;28;19924;-72
2021/10/23 06:12:30;;;;;;;;;;;9.30;99.90;;;;;;5095446;28;19992;-72
2021/10/23 06:14:57;;;;;;;;;;;9.30;99.90;;;;;;5095135;28;19924;-73
2021/10/23 06:17:24;;;;;;;;;;;9.30;99.90;;;;;;5095175;28;19935;-73
2021/10/23 06:19:51;;;;;;;;;;;9.30;99.90;;;;;;5095477;28;20249;-73
2021/10/23 06:22:19;;;;;;;;;;;9.30;99.90;;;;;;5095486;28;19924;-73
2021/10/23 06:24:45;;;;;;;;;;;9.30;99.90;;;;;;5094560;28;20370;-73
2021/10/23 06:27:12;;;;;;;;;;;9.30;99.90;;;;;;5095064;28;19935;-73
2021/10/23 06:29:40;;;;;;;;;;;9.30;99.90;;;;;;5095206;28;19938;-72
2021/10/23 06:32:07;;;;;;;;;;;9.30;99.90;;;;;;5095178;28;20352;-72
2021/10/23 06:34:34;;;;;;;;;;;9.30;99.90;;;;;;5095388;28;19924;-72
2021/10/23 06:37:01;;;;;;;;;;;9.30;99.90;;;;;;5094871;28;19924;-72
2021/10/23 06:39:28;;;;;;;;;;;9.30;99.90;;;;;;5095451;28;19924;-72
2021/10/23 06:41:55;;;;;;;;;;;9.30;99.90;;;;;;5095007;28;19924;-72
2021/10/23 06:44:21;;;;;;;;;;;9.30;99.90;;;;;;5094916;28;20341;-72
2021/10/23 06:46:50;;;;;;;;;;;9.30;99.90;;;;;;5094877;28;19924;-72
2021/10/23 06:49:17;;;;;;;;;;;9.30;99.90;;;;;;5095047;28;19931;-72
2021/10/23 06:51:43;;;;;;;;;;;9.30;99.90;;;;;;5094950;28;19924;-72
2021/10/23 06:54:10;;;;;;;;;;;9.30;99.90;;;;;;5094673;28;20255;-72
2021/10/23 06:56:37;;;;;;;;;;;9.30;99.90;;;;;;5095101;28;19935;-72
2021/10/23 06:59:04;;;;;;;;;;;9.30;99.90;;;;;;5095038;28;20237;-72
2021/10/23 07:01:31;;;;;;;;;;;9.30;99.90;;;;;;5094729;28;19924;-72
2021/10/23 07:03:59;;;;;;;;;;;9.30;99.90;;;;;;5094991;28;19924;-72
2021/10/23 07:06:26;;;;;;;;;;;9.30;99.90;;;;;;5095217;28;20263;-72
2021/10/23 07:08:53;;;;;;;;;;;9.30;99.90;;;;;;5094917;28;19924;-72
2021/10/23 07:11:20;;;;;;;;;;;9.30;99.90;;;;;;5094902;28;19928;-72
2021/10/23 07:13:47;;;;;;;;;;;9.40;99.90;;;;;;5094901;28;19924;-72
2021/10/23 07:16:13;;;;;;;;;;;9.40;99.90;;;;;;5094656;28;20351;-72
2021/10/23 07:18:40;;;;;;;;;;;9.40;99.90;;;;;;5094553;28;19935;-73
2021/10/23 07:21:08;;;;;;;;;;;9.40;99.90;;;;;;5094646;28;19930;-72
2021/10/23 07:23:35;;;;;;;;;;;9.40;99.90;;;;;;5094643;28;20255;-72
2021/10/23 07:26:02;;;;;;;;;;;9.40;99.90;;;;;;5094635;28;19924;-72
2021/10/23 07:28:29;;;;;;;;;;;9.40;99.90;;;;;;5094898;28;19928;-72
2021/10/23 07:30:56;;;;;;;;;;;9.40;99.90;;;;;;5094677;28;19956;-73
2021/10/23 07:33:23;;;;;;;;;;;9.50;99.90;;;;;;5094520;28;19924;-73
2021/10/23 07:35:50;;;;;;;;;;;9.40;99.90;;;;;;5095956;28;19948;-73
2021/10/23 07:38:18;;;;;;;;;;;9.50;99.90;;;;;;5098203;28;19930;-73
2021/10/23 07:40:45;;;;;;;;;;;9.50;99.90;;;;;;5098216;28;19924;-73
2021/10/23 07:43:12;;;;;;;;;;;9.50;99.90;;;;;;5098367;28;19942;-73
2021/10/23 07:45:39;;;;;;;;;;;9.50;99.90;;;;;;5098097;28;19932;-72
2021/10/23 07:48:06;;;;;;;;;;;9.50;99.90;;;;;;5097854;28;20276;-72
2021/10/23 07:50:33;;;;;;;;;;;9.50;99.90;;;;;;5097787;28;19924;-72
2021/10/23 07:53:02;;;;;;;;;;;9.60;99.90;;;;;;5097790;28;19946;-72
2021/10/23 07:55:30;;;;;;;;;;;9.60;99.90;;;;;;5097973;28;19927;-72
2021/10/23 07:57:58;;;;;;;;;;;9.60;99.90;;;;;;5097583;28;20398;-72
2021/10/23 08:00:25;;;;;;;;;;;9.60;99.90;;;;;;5097704;28;19931;-72
2021/10/23 08:02:55;;;;;;;;;;;9.70;99.90;;;;;;5097624;28;19974;-72
2021/10/23 08:05:23;;;;;;;;;;;9.70;99.90;;;;;;5097467;28;19924;-72
2021/10/23 08:07:51;;;;;;;;;;;9.80;99.90;;;;;;5097779;28;19924;-72
2021/10/23 08:10:17;;;;;;;;;;;9.80;99.90;;;;;;5097666;28;19930;-72
2021/10/23 08:12:46;;;;;;;;;;;9.80;99.90;;;;;;5097402;28;19930;-72
2021/10/23 08:15:13;;;;;;;;;;;9.90;99.90;;;;;;5097318;28;19928;-72
2021/10/23 08:17:39;;;;;;;;;;;9.90;99.90;;;;;;5097317;28;20338;-72
2021/10/23 08:20:08;;;;;;;;;;;10.00;99.90;;;;;;5097533;28;19924;-72
2021/10/23 08:22:35;;;;;;;;;;;10.00;99.90;;;;;;5097190;28;19934;-72
2021/10/23 08:25:03;;;;;;;;;;;10.10;99.90;;;;;;5097408;28;19930;-72
2021/10/23 08:27:30;;;;;;;;;;;10.10;99.90;;;;;;5097338;28;20030;-72
2021/10/23 08:29:58;;;;;;;;;;;10.10;99.90;;;;;;5097168;28;19924;-72
2021/10/23 08:32:25;;;;;;;;;;;10.20;99.90;;;;;;5097024;28;19934;-73
2021/10/23 08:34:52;;;;;;;;;;;10.20;99.90;;;;;;5097169;28;19928;-72
2021/10/23 08:37:19;;;;;;;;;;;10.20;99.90;;;;;;5097335;28;19924;-72
2021/10/23 08:39:45;;;;;;;;;;;10.20;99.90;;;;;;5096850;28;20340;-73
2021/10/23 08:42:12;;;;;;;;;;;10.30;99.90;;;;;;5096732;28;19924;-72
2021/10/23 08:44:40;;;;;;;;;;;10.30;99.90;;;;;;5097094;28;19924;-73
2021/10/23 08:47:08;;;;;;;;;;;10.30;99.90;;;;;;5096201;28;19935;-72
2021/10/23 08:49:35;;;;;;;;;;;10.40;99.90;;;;;;5096961;28;19924;-72
2021/10/23 08:52:02;;;;;;;;;;;10.40;99.90;;;;;;5096495;28;19938;-72
2021/10/23 08:54:29;;;;;;;;;;;10.40;99.90;;;;;;5096455;28;19928;-72
2021/10/23 08:56:56;;;;;;;;;;;10.40;99.90;;;;;;5096449;28;20366;-73
2021/10/23 08:59:23;;;;;;;;;;;10.40;99.90;;;;;;5096731;28;19924;-72
2021/10/23 09:01:49;;;;;;;;;;;10.40;99.90;;;;;;5096702;28;19924;-73
2021/10/23 09:04:18;;;;;;;;;;;10.40;99.90;;;;;;5096548;28;19930;-74
2021/10/23 09:06:44;;;;;;;;;;;10.50;99.90;;;;;;5096593;28;19924;-74
2021/10/23 09:09:12;;;;;;;;;;;10.50;99.90;;;;;;5096454;28;19928;-70
2021/10/23 09:11:39;;;;;;;;;;;10.60;99.90;;;;;;5095397;28;19931;-77
2021/10/23 09:14:24;;;;;;;;;;;10.60;99.90;;;;;;5096111;28;20011;-70
2021/10/23 09:17:01;;;;;;;;;;;10.70;99.90;;;;;;5096158;28;19936;-70
2021/10/23 09:19:33;;;;;;;;;;;10.80;99.90;;;;;;5096041;28;19929;-70
2021/10/23 09:22:00;;;;;;;;;;;10.80;99.90;;;;;;5096108;28;19924;-70
2021/10/23 09:24:27;;;;;;;;;;;10.80;99.90;;;;;;5096288;28;19935;-70
2021/10/23 09:26:54;;;;;;;;;;;10.80;99.90;;;;;;5096180;28;20338;-70
2021/10/23 09:29:23;;;;;;;;;;;10.80;99.90;;;;;;5096130;28;20283;-70
2021/10/23 09:31:50;;;;;;;;;;;10.90;99.90;;;;;;5095989;28;20018;-70
2021/10/23 09:34:17;;;;;;;;;;;11.00;99.90;;;;;;5095935;28;20261;-70
2021/10/23 09:36:46;;;;;;;;;;;11.00;99.90;;;;;;5096258;28;19924;-70
2021/10/23 09:39:13;;;;;;;;;;;11.10;99.90;;;;;;5095758;28;19928;-70
2021/10/23 09:41:40;;;;;;;;;;;11.10;99.90;;;;;;5094701;28;19935;-70
2021/10/23 09:44:13;;;;;;;;;;;11.10;99.90;;;;;;5095779;28;19923;-70
2021/10/23 09:46:50;;;;;;;;;;;11.20;99.90;;;;;;5095762;28;20393;-70
2021/10/23 09:49:17;;;;;;;;;;;11.20;99.90;;;;;;5095731;28;19934;-70
2021/10/23 09:51:45;;;;;;;;;;;11.30;99.90;;;;;;5095547;28;19924;-70
2021/10/23 09:54:15;;;;;;;;;;;11.30;99.90;;;;;;5095299;28;20352;-70
2021/10/23 09:56:42;;;;;;;;;;;11.40;99.90;;;;;;5095682;28;19934;-70
2021/10/23 09:59:09;;;;;;;;;;;11.40;99.90;;;;;;5093897;28;20345;-70
2021/10/23 10:01:36;;;;;;;;;;;11.40;99.90;;;;;;5095551;28;19924;-70
2021/10/23 10:04:03;;;;;;;;;;;11.40;99.90;;;;;;5095276;28;19939;-70
2021/10/23 10:06:30;;;;;;;;;;;11.50;99.90;;;;;;5095617;28;19924;-70
2021/10/23 10:08:58;;;;;;;;;;;11.50;99.90;;;;;;5095820;28;19947;-70
2021/10/23 10:11:25;;;;;;;;;;;11.60;99.90;;;;;;5095349;28;19924;-70
2021/10/23 10:13:52;;;;;;;;;;;11.60;99.90;;;;;;5095676;28;19928;-70
2021/10/23 10:16:19;;;;;;;;;;;11.60;99.90;;;;;;5095239;28;19925;-70
2021/10/23 10:18:46;;;;;;;;;;;11.60;99.90;;;;;;5094992;28;20260;-70
2021/10/23 10:21:14;;;;;;;;;;;11.60;99.90;;;;;;5095382;28;19928;-70
2021/10/23 10:23:41;;;;;;;;;;;11.70;99.90;;;;;;5095187;28;19924;-70
2021/10/23 10:26:27;;;;;;;;;;;11.70;99.90;;;;;;5095316;28;19959;-70
2021/10/23 10:29:14;;;;;;;;;;;11.70;99.90;;;;;;5095096;28;20371;-70
2021/10/23 10:31:44;;;;;;;;;;;11.70;99.90;;;;;;5095041;28;19924;-70
2021/10/23 10:34:15;;;;;;;;;;;11.80;99.90;;;;;;5095251;28;19955;-70
2021/10/23 10:37:00;;;;;;;;;;;11.80;99.90;;;;;;5095156;28;19924;-70
2021/10/23 10:39:50;;;;;;;;;;;11.90;99.90;;;;;;5094985;28;19924;-70
2021/10/23 10:42:49;;;;;;;;;;;11.90;99.90;;;;;;5095303;28;19924;-70
2021/10/23 10:45:29;;;;;;;;;;;11.90;99.90;;;;;;5094995;28;19924;-70
2021/10/23 10:48:08;;;;;;;;;;;11.80;99.90;;;;;;5094945;28;20371;-70
2021/10/23 10:50:36;;;;;;;;;;;11.90;99.90;;;;;;5094887;28;19924;-70
2021/10/23 10:53:13;;;;;;;;;;;11.90;99.90;;;;;;5094672;28;19928;-70
2021/10/23 10:55:41;;;;;;;;;;;11.90;99.90;;;;;;5094943;28;19924;-70
2021/10/23 10:58:10;;;;;;;;;;;12.00;99.90;;;;;;5094804;28;19924;-70
2021/10/23 11:01:11;;;;;;;;;;;12.10;99.90;;;;;;5095104;28;19924;-70
2021/10/23 11:03:38;;;;;;;;;;;12.10;99.90;;;;;;5095085;28;19924;-70
2021/10/23 11:06:24;;;;;;;;;;;12.20;99.90;;;;;;5095068;28;19924;-70
2021/10/23 11:09:06;;;;;;;;;;;12.20;99.90;;;;;;5094734;28;19932;-70
2021/10/23 11:11:42;;;;;;;;;;;12.20;99.90;;;;;;5098905;28;19928;-70
2021/10/23 11:14:10;;;;;;;;;;;12.20;99.90;;;;;;5098910;28;19924;-70
2021/10/23 11:16:38;;;;;;;;;;;12.20;99.90;;;;;;5098847;28;20267;-70
2021/10/23 11:19:05;;;;;;;;;;;12.20;99.90;;;;;;5098526;28;19935;-70
2021/10/23 11:21:32;;;;;;;;;;;12.20;99.90;;;;;;5098410;28;19946;-70
2021/10/23 11:23:58;;;;;;;;;;;12.20;99.90;;;;;;5098627;28;19973;-70
2021/10/23 11:26:25;;;;;;;;;;;12.30;99.90;;;;;;5098279;28;20233;-70
2021/10/23 11:28:52;;;;;;;;;;;12.30;99.90;;;;;;5098214;28;19930;-70
2021/10/23 11:31:21;;;;;;;;;;;12.40;99.90;;;;;;5098176;28;19934;-70
2021/10/23 11:33:47;;;;;;;;;;;12.40;99.90;;;;;;5098329;28;19924;-70
2021/10/23 11:36:14;;;;;;;;;;;12.50;99.90;;;;;;5098435;28;19939;-70
2021/10/23 11:38:41;;;;;;;;;;;12.50;99.90;;;;;;5097895;28;19924;-70
2021/10/23 11:41:08;;;;;;;;;;;12.50;99.90;;;;;;5098247;28;19924;-70
2021/10/23 11:43:38;;;;;;;;;;;12.50;99.90;;;;;;5098082;28;20378;-70
2021/10/23 11:46:06;;;;;;;;;;;12.50;99.90;;;;;;5098160;28;20271;-70
2021/10/23 11:48:34;;;;;;;;;;;12.50;99.90;;;;;;5097781;28;19946;-70
2021/10/23 11:51:01;;;;;;;;;;;12.50;99.90;;;;;;5098312;28;19924;-70
2021/10/23 11:53:29;;;;;;;;;;;12.50;99.90;;;;;;5097827;28;19942;-70
2021/10/23 11:56:00;;;;;;;;;;;12.50;99.90;;;;;;5097857;28;19998;-70
2021/10/23 11:58:27;;;;;;;;;;;12.60;99.90;;;;;;5098159;28;20276;-70
2021/10/23 12:00:58;;;;;;;;;;;12.60;99.90;;;;;;5097613;28;19928;-70
2021/10/23 12:03:28;;;;;;;;;;;12.70;99.90;;;;;;5097661;28;19932;-70
2021/10/23 12:05:56;;;;;;;;;;;12.70;99.90;;;;;;5097716;28;19974;-70
2021/10/23 12:08:24;;;;;;;;;;;12.70;99.90;;;;;;5097507;28;20435;-70
2021/10/23 12:11:12;;;;;;;;;;;12.80;99.90;;;;;;5097445;28;20401;-70
2021/10/23 12:13:55;;;;;;;;;;;12.90;99.90;;;;;;5092682;28;20318;-70
2021/10/23 12:16:32;;;;;;;;;;;12.90;99.90;;;;;;5097663;28;20021;-70
2021/10/23 12:18:59;;;;;;;;;;;12.80;99.90;;;;;;5097627;28;20264;-70
2021/10/23 12:21:28;;;;;;;;;;;12.70;99.90;;;;;;5096310;28;19924;-70
2021/10/23 12:23:55;;;;;;;;;;;12.70;99.90;;;;;;5096351;28;19950;-70
2021/10/23 12:26:24;;;;;;;;;;;12.60;99.90;;;;;;5097250;28;19924;-73
2021/10/23 12:28:58;;;;;;;;;;;12.60;99.90;;;;;;5097195;28;19924;-70
2021/10/23 12:31:26;;;;;;;;;;;12.50;99.90;;;;;;5097051;28;20314;-69
2021/10/23 12:33:59;;;;;;;;;;;12.40;99.90;;;;;;5096910;28;19924;-70
2021/10/23 12:36:26;;;;;;;;;;;12.40;99.90;;;;;;5097290;28;19942;-77
2021/10/23 12:38:54;;;;;;;;;;;12.40;99.90;;;;;;5097300;28;19924;-70
2021/10/23 12:41:21;;;;;;;;;;;12.40;99.90;;;;;;5097079;28;19924;-70
2021/10/23 12:43:47;;;;;;;;;;;12.40;99.90;;;;;;5097201;28;19935;-70
2021/10/23 12:46:16;;;;;;;;;;;12.40;99.90;;;;;;5096735;28;20294;-70
2021/10/23 12:48:43;;;;;;;;;;;12.40;99.90;;;;;;5096569;28;19925;-70
2021/10/23 12:51:10;;;;;;;;;;;12.40;99.90;;;;;;5096732;28;19924;-70
2021/10/23 12:53:37;;;;;;;;;;;12.40;99.90;;;;;;5096507;28;19924;-70
2021/10/23 12:56:05;;;;;;;;;;;12.40;99.90;;;;;;5096879;28;19950;-70
2021/10/23 12:58:32;;;;;;;;;;;12.30;99.90;;;;;;5096997;28;19924;-70
2021/10/23 13:01:00;;;;;;;;;;;12.30;99.90;;;;;;5096736;28;19938;-70
2021/10/23 13:03:27;;;;;;;;;;;12.30;99.90;;;;;;5096239;28;19924;-70
2021/10/23 13:05:53;;;;;;;;;;;12.20;99.90;;;;;;5096517;28;19935;-70
2021/10/23 13:08:20;;;;;;;;;;;12.30;99.90;;;;;;5096285;28;19930;-70
2021/10/23 13:10:47;;;;;;;;;;;12.30;99.90;;;;;;5096364;28;20344;-70
2021/10/23 13:13:15;;;;;;;;;;;12.30;99.90;;;;;;5096314;28;19924;-70
2021/10/23 13:15:42;;;;;;;;;;;12.30;99.90;;;;;;5096533;28;19950;-70
2021/10/23 13:18:09;;;;;;;;;;;12.30;99.90;;;;;;5096115;28;20362;-70
2021/10/23 13:20:36;;;;;;;;;;;12.30;99.90;;;;;;5096059;28;19938;-70
2021/10/23 13:23:03;;;;;;;;;;;12.30;99.90;;;;;;5096261;28;19974;-70
2021/10/23 13:25:29;;;;;;;;;;;12.30;99.90;;;;;;5096224;28;19924;-70
2021/10/23 13:27:56;;;;;;;;;;;12.30;99.90;;;;;;5096230;28;20239;-70
2021/10/23 13:30:24;;;;;;;;;;;12.20;99.90;;;;;;5095891;28;19924;-70
2021/10/23 13:32:52;;;;;;;;;;;12.20;99.90;;;;;;5096106;28;19924;-70
2021/10/23 13:35:19;;;;;;;;;;;12.10;99.90;;;;;;5095734;28;19954;-70
2021/10/23 13:37:45;;;;;;;;;;;12.10;99.90;;;;;;5095831;28;19928;-70
2021/10/23 13:40:13;;;;;;;;;;;12.10;99.90;;;;;;5096150;28;19924;-70
2021/10/23 13:42:40;;;;;;;;;;;12.10;99.90;;;;;;5095816;28;19924;-70
2021/10/23 13:45:07;;;;;;;;;;;12.10;99.90;;;;;;5095731;28;19924;-70
2021/10/23 13:47:36;;;;;;;;;;;12.10;99.90;;;;;;5095612;28;19931;-70
2021/10/23 13:50:02;;;;;;;;;;;12.10;99.90;;;;;;5095655;28;19924;-70
2021/10/23 13:52:29;;;;;;;;;;;12.20;99.90;;;;;;5095783;28;19925;-70
2021/10/23 13:54:56;;;;;;;;;;;12.20;99.90;;;;;;5095610;28;19928;-70
2021/10/23 13:57:23;;;;;;;;;;;12.20;99.90;;;;;;5095553;28;19924;-70
2021/10/23 13:59:50;;;;;;;;;;;12.30;99.90;;;;;;5095627;28;20352;-70
2021/10/23 14:02:16;;;;;;;;;;;12.30;99.90;;;;;;5095421;28;19924;-70
2021/10/23 14:04:45;;;;;;;;;;;12.30;99.90;;;;;;5095691;28;19928;-70
2021/10/23 14:07:12;;;;;;;;;;;12.30;99.90;;;;;;5095661;28;19924;-70
2021/10/23 14:09:38;;;;;;;;;;;12.30;99.90;;;;;;5095482;28;20268;-70
2021/10/23 14:12:05;;;;;;;;;;;12.30;99.90;;;;;;5095281;28;19928;-70
2021/10/23 14:14:32;;;;;;;;;;;12.30;99.90;;;;;;5095399;28;19924;-70
2021/10/23 14:16:59;;;;;;;;;;;12.30;99.90;;;;;;5095248;28;19928;-70
2021/10/23 14:19:26;;;;;;;;;;;12.30;99.90;;;;;;5095192;28;19935;-70
2021/10/23 14:21:54;;;;;;;;;;;12.30;99.90;;;;;;5095434;28;20382;-70
2021/10/23 14:24:24;;;;;;;;;;;12.30;99.90;;;;;;5095387;28;19924;-70
2021/10/23 14:26:50;;;;;;;;;;;12.30;99.90;;;;;;5095177;28;19943;-70
2021/10/23 14:29:17;;;;;;;;;;;12.20;99.90;;;;;;5095236;28;19931;-70